Time;durP1;ratioP1;P1;durP2;ratioP2;P2;SDS_P1;SDS_P2;PMS_P1;PMS_P2;Temp;Humidity;BMP_temperature;BMP_pressure;BME280_temperature;BME280_humidity;BME280_pressure;Samples;Min_cycle;Max_cycle;Signal;HPM_P1;HPM_P2
2021/07/02 00:01:40;;;;;;;5.23;4.73;;;13.70;48.70;;;;;;4995314;28;20193;-69
2021/07/02 00:04:06;;;;;;;7.23;4.70;;;13.60;48.80;;;;;;4994982;28;20186;-69
2021/07/02 00:06:32;;;;;;;6.00;4.67;;;13.70;48.00;;;;;;4995325;28;20177;-69
2021/07/02 00:08:58;;;;;;;7.17;5.80;;;13.60;48.00;;;;;;5000977;28;20459;-71
2021/07/02 00:11:23;;;;;;;8.80;6.50;;;13.70;48.00;;;;;;5004656;28;20563;-68
2021/07/02 00:13:49;;;;;;;5.50;5.00;;;13.60;48.00;;;;;;5014423;28;20426;-68
2021/07/02 00:16:14;;;;;;;6.40;5.47;;;13.60;47.80;;;;;;5014449;28;20184;-68
2021/07/02 00:18:40;;;;;;;6.07;4.93;;;13.60;47.70;;;;;;5014241;28;20665;-68
2021/07/02 00:21:06;;;;;;;10.17;6.10;;;13.60;47.60;;;;;;5011268;28;20183;-69
2021/07/02 00:23:32;;;;;;;6.20;5.50;;;13.50;47.70;;;;;;4977491;28;20564;-68
2021/07/02 00:25:57;;;;;;;4.60;3.90;;;13.50;48.10;;;;;;4995572;28;20476;-68
2021/07/02 00:28:23;;;;;;;5.77;4.57;;;13.50;48.50;;;;;;4994735;28;20472;-69
2021/07/02 00:30:49;;;;;;;6.90;4.60;;;13.50;48.40;;;;;;4995300;28;20176;-69
2021/07/02 00:33:15;;;;;;;7.50;5.93;;;13.50;48.50;;;;;;5014017;28;20231;-70
2021/07/02 00:35:43;;;;;;;7.10;5.47;;;13.40;48.60;;;;;;5014074;28;20406;-69
2021/07/02 00:38:09;;;;;;;6.13;5.30;;;13.30;48.70;;;;;;5013967;28;20203;-69
2021/07/02 00:40:35;;;;;;;5.60;4.87;;;13.30;48.80;;;;;;4996337;28;20791;-69
2021/07/02 00:43:01;;;;;;;6.87;4.70;;;13.30;48.50;;;;;;5011755;28;20461;-70
2021/07/02 00:45:26;;;;;;;6.63;5.13;;;13.30;48.60;;;;;;4996650;28;20455;-69
2021/07/02 00:47:52;;;;;;;5.63;5.10;;;13.30;48.80;;;;;;5000237;28;20535;-71
2021/07/02 00:50:18;;;;;;;5.73;4.20;;;13.30;48.50;;;;;;4996049;28;20200;-73
2021/07/02 00:52:45;;;;;;;12.03;4.93;;;13.20;49.10;;;;;;4994374;28;20427;-70
2021/07/02 00:55:11;;;;;;;5.20;3.90;;;13.10;49.10;;;;;;4998297;28;20439;-70
2021/07/02 00:57:37;;;;;;;10.10;4.67;;;13.10;49.10;;;;;;5014003;28;20431;-69
2021/07/02 01:00:06;;;;;;;9.37;5.30;;;13.10;49.10;;;;;;5012793;28;20419;-71
2021/07/02 01:02:31;;;;;;;11.90;6.27;;;13.10;49.10;;;;;;5015411;28;20908;-69
2021/07/02 01:04:57;;;;;;;7.63;5.93;;;13.00;49.60;;;;;;5016133;28;20423;-70
2021/07/02 01:07:23;;;;;;;7.17;5.87;;;12.90;50.10;;;;;;5006978;28;20184;-69
2021/07/02 01:09:48;;;;;;;7.13;4.60;;;12.80;51.50;;;;;;4993444;28;20216;-68
2021/07/02 01:12:14;;;;;;;6.63;5.37;;;12.90;68.00;;;;;;4993855;28;20187;-68
2021/07/02 01:14:40;;;;;;;5.60;4.90;;;12.80;51.00;;;;;;4994137;28;20474;-68
2021/07/02 01:17:06;;;;;;;11.13;6.07;;;12.80;51.20;;;;;;4996920;28;20199;-69
2021/07/02 01:19:32;;;;;;;7.50;5.93;;;12.70;51.60;;;;;;5003881;28;20459;-68
2021/07/02 01:21:57;;;;;;;6.20;5.50;;;12.70;51.80;;;;;;5012930;28;20190;-69
2021/07/02 01:24:23;;;;;;;5.67;5.17;;;12.70;51.80;;;;;;5014197;28;20181;-69
2021/07/02 01:26:53;;;;;;;6.53;5.10;;;12.60;51.90;;;;;;5015748;28;20641;-70
2021/07/02 01:29:19;;;;;;;6.37;5.73;;;12.60;52.90;;;;;;5011035;28;20468;-69
2021/07/02 01:31:45;;;;;;;6.30;5.50;;;12.60;53.30;;;;;;5013571;28;20430;-69
2021/07/02 01:34:11;;;;;;;5.30;4.47;;;12.60;52.70;;;;;;5016127;28;20415;-69
2021/07/02 01:36:37;;;;;;;6.27;4.97;;;12.60;53.10;;;;;;5013057;28;20267;-69
2021/07/02 01:39:04;;;;;;;6.70;5.03;;;12.70;52.60;;;;;;4997920;28;20243;-69
2021/07/02 01:41:30;;;;;;;5.83;5.10;;;12.70;54.20;;;;;;4993466;28;20481;-69
2021/07/02 01:43:55;;;;;;;6.53;4.87;;;12.80;55.40;;;;;;4993443;28;20420;-69
2021/07/02 01:46:21;;;;;;;6.33;5.20;;;12.70;56.20;;;;;;4976049;28;20641;-69
2021/07/02 01:48:46;;;;;;;6.90;4.80;;;12.70;55.70;;;;;;4995811;28;20285;-70
2021/07/02 01:51:12;;;;;;;6.23;4.67;;;12.70;56.00;;;;;;5007171;28;20270;-70
2021/07/02 01:53:38;;;;;;;6.93;5.27;;;12.70;56.60;;;;;;5012584;28;20219;-69
2021/07/02 01:56:05;;;;;;;5.83;4.70;;;12.60;53.00;;;;;;4992269;28;20454;-69
2021/07/02 01:58:30;;;;;;;6.73;4.80;;;12.60;51.10;;;;;;4992126;28;20231;-70
2021/07/02 02:00:56;;;;;;;6.90;4.10;;;12.60;51.30;;;;;;4991727;28;20493;-70
2021/07/02 02:03:21;;;;;;;5.60;5.03;;;12.50;51.30;;;;;;5005803;28;20190;-69
2021/07/02 02:05:48;;;;;;;6.00;5.40;;;12.50;51.50;;;;;;5010682;28;20359;-68
2021/07/02 02:08:14;;;;;;;8.03;4.90;;;12.40;51.80;;;;;;5012108;28;20215;-70
2021/07/02 02:10:49;;;;;;;7.03;5.53;;;12.40;52.50;;;;;;5012132;28;20426;-69
2021/07/02 02:13:14;;;;;;;5.60;4.33;;;12.30;52.30;;;;;;5010797;28;20497;-70
2021/07/02 02:15:40;;;;;;;5.80;3.80;;;12.30;52.20;;;;;;5000216;28;20909;-69
2021/07/02 02:18:06;;;;;;;5.07;4.57;;;12.30;52.30;;;;;;4975164;28;20215;-69
2021/07/02 02:20:31;;;;;;;6.90;4.30;;;12.30;52.40;;;;;;4992636;28;20528;-69
2021/07/02 02:22:57;;;;;;;6.00;4.93;;;12.30;52.40;;;;;;4995479;28;20226;-69
2021/07/02 02:25:22;;;;;;;5.60;4.33;;;12.30;52.50;;;;;;4993108;28;20187;-69
2021/07/02 02:27:48;;;;;;;7.20;4.00;;;12.30;52.50;;;;;;5007351;28;20204;-69
2021/07/02 02:30:14;;;;;;;8.27;4.83;;;12.30;52.80;;;;;;5014563;28;20227;-69
2021/07/02 02:32:40;;;;;;;9.83;5.37;;;12.30;52.50;;;;;;5012232;28;20873;-69
2021/07/02 02:35:07;;;;;;;5.70;4.13;;;12.30;52.10;;;;;;5012290;28;20498;-69
2021/07/02 02:37:32;;;;;;;5.87;4.10;;;12.30;52.00;;;;;;5011749;28;20425;-70
2021/07/02 02:39:58;;;;;;;4.93;3.73;;;12.30;51.90;;;;;;4998072;28;20535;-69
2021/07/02 02:42:24;;;;;;;7.63;5.33;;;12.30;51.40;;;;;;4993723;28;20184;-70
2021/07/02 02:44:49;;;;;;;6.10;5.50;;;12.20;51.50;;;;;;4992079;28;20470;-69
2021/07/02 02:47:15;;;;;;;8.50;5.50;;;12.20;51.70;;;;;;4992041;28;20192;-69
2021/07/02 02:49:40;;;;;;;6.47;5.17;;;12.10;51.70;;;;;;5010910;28;20329;-71
2021/07/02 02:52:06;;;;;;;5.53;4.30;;;12.10;51.70;;;;;;4994099;28;20186;-69
2021/07/02 02:54:32;;;;;;;6.90;5.63;;;12.00;52.30;;;;;;5011693;28;20336;-69
2021/07/02 02:57:03;;;;;;;10.50;5.67;;;11.90;53.00;;;;;;5011548;28;20420;-69
2021/07/02 02:59:30;;;;;;;7.13;5.90;;;11.70;52.90;;;;;;4992939;28;20219;-69
2021/07/02 03:01:56;;;;;;;5.97;5.37;;;11.70;53.70;;;;;;4991804;28;20422;-68
2021/07/02 03:04:21;;;;;;;7.60;5.13;;;11.70;53.80;;;;;;4991874;28;20424;-69
2021/07/02 03:06:47;;;;;;;7.70;4.63;;;11.70;54.10;;;;;;4991665;28;20203;-69
2021/07/02 03:09:12;;;;;;;7.90;5.67;;;11.60;54.40;;;;;;4992763;28;20210;-70
2021/07/02 03:11:38;;;;;;;6.73;4.97;;;11.60;54.60;;;;;;5009711;28;20237;-69
2021/07/02 03:14:03;;;;;;;7.33;5.50;;;11.60;55.20;;;;;;5011163;28;20175;-69
2021/07/02 03:16:31;;;;;;;5.67;4.90;;;11.60;54.60;;;;;;5011345;28;20459;-69
2021/07/02 03:18:56;;;;;;;7.30;6.57;;;11.60;55.30;;;;;;5013761;28;20605;-69
2021/07/02 03:21:22;;;;;;;5.80;4.97;;;11.60;54.80;;;;;;5013759;28;20416;-68
2021/07/02 03:23:47;;;;;;;7.30;4.43;;;11.60;54.90;;;;;;4996297;28;20247;-69
2021/07/02 03:26:16;;;;;;;6.50;5.07;;;11.50;54.90;;;;;;4992504;28;20252;-69
2021/07/02 03:28:42;;;;;;;6.20;4.50;;;11.60;54.70;;;;;;4991306;28;20645;-69
2021/07/02 03:31:07;;;;;;;5.63;5.13;;;11.50;54.60;;;;;;4991270;28;20450;-70
2021/07/02 03:33:33;;;;;;;8.47;5.50;;;11.50;54.10;;;;;;4991628;28;20183;-69
2021/07/02 03:35:58;;;;;;;10.30;5.63;;;11.50;54.20;;;;;;5008461;28;20217;-68
2021/07/02 03:38:24;;;;;;;6.40;4.90;;;11.60;53.90;;;;;;5011162;28;20205;-69
2021/07/02 03:40:49;;;;;;;7.80;5.93;;;11.50;53.60;;;;;;5012083;28;20544;-68
2021/07/02 03:43:16;;;;;;;6.57;5.00;;;11.50;53.50;;;;;;5011085;28;20189;-69
2021/07/02 03:45:41;;;;;;;6.20;4.30;;;11.50;53.10;;;;;;5010685;28;20175;-69
2021/07/02 03:48:07;;;;;;;6.83;4.23;;;11.40;53.80;;;;;;5010599;28;20461;-69
2021/07/02 03:50:33;;;;;;;5.90;4.93;;;11.40;54.00;;;;;;5010918;28;20690;-69
2021/07/02 03:52:58;;;;;;;6.40;5.57;;;11.30;54.30;;;;;;5011007;28;20239;-69
2021/07/02 03:55:24;;;;;;;7.30;5.07;;;11.30;54.80;;;;;;5013013;28;20418;-69
2021/07/02 03:57:49;;;;;;;7.03;5.20;;;11.30;55.00;;;;;;5011932;28;20611;-69
2021/07/02 04:00:15;;;;;;;5.50;4.97;;;11.30;55.50;;;;;;4993252;28;20742;-68
2021/07/02 04:02:41;;;;;;;9.23;6.70;;;11.30;55.20;;;;;;4991324;28;20191;-69
2021/07/02 04:05:07;;;;;;;5.57;5.07;;;11.30;55.30;;;;;;4991501;28;20418;-69
2021/07/02 04:07:33;;;;;;;9.37;6.43;;;11.30;54.90;;;;;;4992241;28;20661;-68
2021/07/02 04:09:58;;;;;;;8.20;5.53;;;11.30;54.90;;;;;;4994565;28;20488;-69
2021/07/02 04:12:24;;;;;;;8.37;5.70;;;11.40;54.50;;;;;;5010792;28;20190;-68
2021/07/02 04:14:50;;;;;;;5.03;4.53;;;11.40;54.60;;;;;;5010643;28;20164;-68
2021/07/02 04:17:16;;;;;;;5.77;5.07;;;11.50;54.20;;;;;;5010733;28;20411;-68
2021/07/02 04:19:41;;;;;;;6.83;5.57;;;11.50;54.20;;;;;;5011302;28;20199;-68
2021/07/02 04:22:07;;;;;;;7.23;5.07;;;11.60;54.40;;;;;;5009303;28;20233;-69
2021/07/02 04:24:33;;;;;;;5.43;4.80;;;11.70;53.70;;;;;;4992823;28;20194;-69
2021/07/02 04:26:59;;;;;;;8.77;5.77;;;11.80;53.70;;;;;;4990972;28;20916;-69
2021/07/02 04:29:26;;;;;;;5.20;4.70;;;11.90;53.00;;;;;;4991271;28;20486;-69
2021/07/02 04:31:51;;;;;;;7.23;5.80;;;12.10;52.10;;;;;;4990888;28;20177;-68
2021/07/02 04:34:17;;;;;;;6.50;5.17;;;12.20;51.10;;;;;;4993647;28;20436;-69
2021/07/02 04:36:43;;;;;;;5.10;4.20;;;12.30;73.60;;;;;;5003380;28;20188;-71
2021/07/02 04:39:09;;;;;;;5.87;4.60;;;12.30;75.50;;;;;;4995362;28;20451;-69
2021/07/02 04:41:34;;;;;;;7.87;5.10;;;12.40;76.30;;;;;;4994615;28;20179;-69
2021/07/02 04:44:00;;;;;;;8.33;5.13;;;12.50;48.60;;;;;;4994384;28;20180;-69
2021/07/02 04:46:25;;;;;;;4.40;3.87;;;12.80;47.90;;;;;;4997378;28;20177;-69
2021/07/02 04:48:51;;;;;;;10.53;4.97;;;12.90;47.70;;;;;;5035238;23;20239;-70
2021/07/02 04:51:16;;;;;;;7.40;5.53;;;13.20;47.90;;;;;;5041983;28;20175;-71
2021/07/02 04:53:43;;;;;;;8.20;4.80;;;13.50;47.40;;;;;;5041642;28;20239;-71
2021/07/02 04:56:13;;;;;;;5.80;4.43;;;14.50;44.50;;;;;;5040761;28;20184;-71
2021/07/02 04:58:43;;;;;;;5.43;4.77;;;14.60;44.10;;;;;;5040487;28;20521;-70
2021/07/02 05:01:09;;;;;;;5.17;4.13;;;15.70;38.80;;;;;;5038894;28;20424;-72
2021/07/02 05:03:35;;;;;;;5.50;4.27;;;16.60;32.10;;;;;;5034772;28;20460;-71
2021/07/02 05:06:05;;;;;;;5.30;4.80;;;16.70;31.60;;;;;;5018804;28;20482;-69
2021/07/02 05:08:31;;;;;;;4.20;3.80;;;16.60;31.60;;;;;;5020292;28;20301;-71
2021/07/02 05:10:57;;;;;;;5.63;4.07;;;17.10;30.60;;;;;;5038372;28;20426;-70
2021/07/02 05:13:23;;;;;;;4.23;3.83;;;17.20;29.20;;;;;;5039335;28;20168;-71
2021/07/02 05:15:49;;;;;;;8.00;5.23;;;17.80;30.10;;;;;;5034587;28;20199;-71
2021/07/02 05:18:15;;;;;;;5.10;4.33;;;18.90;26.80;;;;;;5030801;28;20203;-72
2021/07/02 05:20:44;;;;;;;5.80;4.80;;;19.90;25.20;;;;;;5013685;28;20419;-71
2021/07/02 05:23:10;;;;;;;3.93;3.57;;;20.70;22.80;;;;;;5016396;28;20178;-71
2021/07/02 05:25:35;;;;;;;7.80;4.30;;;20.70;21.40;;;;;;5014591;28;20738;-70
2021/07/02 05:28:02;;;;;;;4.27;3.77;;;19.50;52.60;;;;;;5016492;28;20423;-71
2021/07/02 05:30:28;;;;;;;4.90;4.40;;;19.40;60.60;;;;;;5014617;28;20751;-70
2021/07/02 05:32:54;;;;;;;4.93;4.53;;;19.70;30.10;;;;;;5014397;28;20415;-71
2021/07/02 05:35:19;;;;;;;4.43;3.70;;;20.70;29.90;;;;;;5013439;28;20541;-71
2021/07/02 05:37:46;;;;;;;7.40;4.80;;;;;;;;;;5014142;28;20920;-74
2021/07/02 05:40:13;;;;;;;5.33;4.20;;;23.00;53.10;;;;;;5013472;28;20752;-74
2021/07/02 05:42:39;;;;;;;4.63;4.03;;;24.00;51.10;;;;;;5017180;28;20434;-70
2021/07/02 05:45:06;;;;;;;6.57;4.03;;;;;;;;;;5015746;28;20989;-70
2021/07/02 05:47:40;;;;;;;6.00;3.50;;;25.80;15.40;;;;;;5015628;28;20789;-71
2021/07/02 05:50:06;;;;;;;3.83;3.50;;;26.20;16.20;;;;;;5024213;28;20481;-71
2021/07/02 05:52:34;;;;;;;4.57;4.17;;;26.80;15.70;;;;;;5018619;28;20512;-69
2021/07/02 05:55:00;;;;;;;7.53;4.60;;;27.10;12.10;;;;;;5033584;28;20426;-71
2021/07/02 05:57:26;;;;;;;7.63;5.60;;;27.10;12.10;;;;;;5035721;28;20414;-71
2021/07/02 05:59:51;;;;;;;5.63;4.90;;;27.40;11.80;;;;;;5033421;28;20500;-71
2021/07/02 06:02:17;;;;;;;5.53;5.03;;;27.50;10.20;;;;;;5036585;28;20175;-69
2021/07/02 06:04:42;;;;;;;10.13;4.43;;;28.00;10.60;;;;;;5035145;28;20182;-70
2021/07/02 06:07:08;;;;;;;6.27;5.47;;;28.20;10.50;;;;;;5033811;28;20270;-72
2021/07/02 06:09:36;;;;;;;7.43;6.17;;;28.40;10.60;;;;;;5034474;28;20254;-71
2021/07/02 06:12:04;;;;;;;5.87;5.33;;;28.60;9.00;;;;;;5035247;28;20175;-72
2021/07/02 06:14:31;;;;;;;5.77;5.37;;;28.70;9.10;;;;;;5036400;28;20471;-71
2021/07/02 06:16:57;;;;;;;4.80;4.50;;;28.90;8.90;;;;;;5030379;28;20566;-71
2021/07/02 06:19:22;;;;;;;6.13;5.63;;;29.20;8.30;;;;;;5014061;28;20481;-71
2021/07/02 06:21:48;;;;;;;6.57;5.93;;;29.30;8.40;;;;;;5014220;28;20419;-72
2021/07/02 06:24:14;;;;;;;7.43;6.83;;;29.40;8.10;;;;;;5013964;28;20683;-72
2021/07/02 06:26:39;;;;;;;6.23;5.63;;;29.70;7.60;;;;;;5029331;28;20639;-72
2021/07/02 06:29:05;;;;;;;7.40;6.93;;;30.00;7.90;;;;;;5031724;28;20436;-70
2021/07/02 06:31:31;;;;;;;5.70;5.30;;;30.10;9.30;;;;;;5027817;28;20187;-72
2021/07/02 06:33:56;;;;;;;7.17;6.47;;;30.20;8.20;;;;;;5029777;28;20237;-70
2021/07/02 06:36:22;;;;;;;6.33;5.87;;;30.10;7.90;;;;;;5029059;28;20186;-71
2021/07/02 06:38:47;;;;;;;7.90;6.27;;;30.10;8.20;;;;;;5025934;28;20199;-69
2021/07/02 06:41:13;;;;;;;6.50;6.00;;;30.40;7.80;;;;;;5026861;28;20210;-72
2021/07/02 06:43:38;;;;;;;7.53;6.83;;;30.50;8.40;;;;;;5030971;28;20190;-70
2021/07/02 06:46:04;;;;;;;8.43;7.73;;;30.60;6.00;;;;;;5027837;28;20256;-71
2021/07/02 06:48:29;;;;;;;8.20;7.60;;;31.20;5.00;;;;;;5012232;28;20219;-71
2021/07/02 06:50:56;;;;;;;7.43;6.73;;;31.30;6.10;;;;;;5022380;28;20306;-73
2021/07/02 06:53:23;;;;;;;9.47;8.87;;;31.30;5.00;;;;;;5006182;28;21032;-72
2021/07/02 06:55:49;;;;;;;8.37;7.70;;;31.60;5.10;;;;;;5006581;28;20422;-71
2021/07/02 06:58:14;;;;;;;9.33;8.67;;;31.70;5.20;;;;;;5007548;28;20457;-71
2021/07/02 07:00:40;;;;;;;8.53;8.13;;;31.70;5.20;;;;;;5021395;28;20977;-75
2021/07/02 07:03:09;;;;;;;9.43;8.83;;;31.90;5.30;;;;;;5028402;28;20644;-73
2021/07/02 07:05:36;;;;;;;9.20;8.70;;;32.00;4.10;;;;;;5018842;28;20266;-70
2021/07/02 07:08:02;;;;;;;9.93;9.33;;;31.80;6.30;;;;;;5020818;28;20425;-76
2021/07/02 07:10:30;;;;;;;10.00;9.50;;;31.50;6.60;;;;;;5028372;28;20523;-73
2021/07/02 07:12:57;;;;;;;11.23;10.57;;;31.50;5.10;;;;;;5025586;28;20505;-70
2021/07/02 07:15:23;;;;;;;10.33;9.83;;;31.50;5.10;;;;;;5026846;28;20484;-70
2021/07/02 07:17:48;;;;;;;12.80;11.57;;;31.50;5.10;;;;;;5027493;28;20414;-71
2021/07/02 07:20:14;;;;;;;11.33;10.77;;;31.40;5.00;;;;;;5032079;28;20281;-71
2021/07/02 07:22:39;;;;;;;12.17;11.37;;;31.90;5.30;;;;;;5015835;28;20272;-72
2021/07/02 07:25:05;;;;;;;11.67;11.17;;;31.70;5.20;;;;;;5016181;28;20237;-72
2021/07/02 07:27:31;;;;;;;12.17;11.37;;;31.50;5.10;;;;;;5009458;28;20188;-72
2021/07/02 07:29:57;;;;;;;12.90;12.20;;;31.90;4.30;;;;;;5023820;28;20218;-72
2021/07/02 07:32:22;;;;;;;11.33;10.83;;;31.90;3.90;;;;;;5015138;28;20426;-71
2021/07/02 07:35:00;;;;;;;12.67;12.07;;;32.10;4.40;;;;;;5012607;28;20187;-73
2021/07/02 07:37:28;;;;;;;13.20;12.50;;;32.50;3.50;;;;;;5008544;28;20665;-72
2021/07/02 07:39:53;;;;;;;13.27;12.57;;;32.60;2.90;;;;;;5020842;28;20454;-73
2021/07/02 07:42:19;;;;;;;12.87;12.27;;;32.40;2.40;;;;;;5018351;28;20442;-72
2021/07/02 07:44:45;;;;;;;14.47;13.47;;;32.50;3.90;;;;;;5020696;28;20203;-72
2021/07/02 07:47:11;;;;;;;13.50;12.70;;;32.00;2.10;;;;;;5010291;28;20285;-72
2021/07/02 07:49:37;;;;;;;15.27;14.37;;;31.70;3.00;;;;;;5016636;28;20991;-70
2021/07/02 07:54:29;;;;;;;15.43;14.50;;;28.40;41.70;;;;;;5010803;28;20492;-71
2021/07/02 07:56:55;;;;;;;15.17;14.40;;;28.40;5.30;;;;;;5017194;28;20437;-71
2021/07/02 07:59:23;;;;;;;15.13;14.43;;;28.40;7.20;;;;;;5020096;28;20534;-73
2021/07/02 08:01:49;;;;;;;14.80;14.10;;;28.50;6.00;;;;;;5019439;28;20190;-70
2021/07/02 08:04:15;;;;;;;15.27;14.17;;;28.40;5.00;;;;;;5026309;28;20426;-71
2021/07/02 08:06:45;;;;;;;16.00;15.10;;;28.60;5.40;;;;;;5026906;28;20430;-72
2021/07/02 08:09:11;;;;;;;15.73;15.00;;;28.40;5.60;;;;;;5031494;28;20211;-71
2021/07/02 08:11:38;;;;;;;15.40;14.70;;;28.30;5.60;;;;;;5029998;28;20413;-71
2021/07/02 08:14:04;;;;;;;15.47;14.77;;;28.40;6.50;;;;;;5025776;28;20426;-72
2021/07/02 08:16:30;;;;;;;15.93;15.03;;;28.20;5.10;;;;;;5021114;28;20449;-72
2021/07/02 08:18:56;;;;;;;15.40;14.70;;;28.30;5.30;;;;;;5013707;28;20434;-70
2021/07/02 08:21:22;;;;;;;15.77;15.07;;;28.60;6.80;;;;;;5021937;28;20417;-71
2021/07/02 08:23:47;;;;;;;16.13;15.33;;;29.30;5.30;;;;;;5038636;28;20167;-72
2021/07/02 08:26:13;;;;;;;16.17;15.33;;;30.00;4.30;;;;;;5032332;28;20345;-72
2021/07/02 08:31:23;;;;;;;17.13;16.27;;;30.20;3.30;;;;;;5019614;28;20467;-72
2021/07/02 08:33:49;;;;;;;15.70;14.97;;;29.10;3.80;;;;;;5029668;28;20489;-71
2021/07/02 08:36:15;;;;;;;17.17;16.10;;;29.10;5.00;;;;;;5015320;28;20419;-71
2021/07/02 08:38:41;;;;;;;16.80;16.00;;;29.30;4.20;;;;;;5028969;28;20207;-72
2021/07/02 08:41:11;;;;;;;17.00;16.20;;;28.40;5.70;;;;;;5034111;28;20176;-72
2021/07/02 08:43:37;;;;;;;16.57;15.77;;;28.50;5.20;;;;;;5040267;28;20412;-72
2021/07/02 08:46:03;;;;;;;16.50;15.60;;;29.10;3.80;;;;;;5035427;28;20501;-71
2021/07/02 08:48:29;;;;;;;15.23;14.60;;;;;;;;;;5035154;28;20214;-72
2021/07/02 08:50:55;;;;;;;16.13;15.37;;;;;;;;;;5035684;28;20183;-71
2021/07/02 08:53:21;;;;;;;15.60;15.00;;;31.40;25.40;;;;;;5038140;28;20406;-72
2021/07/02 08:55:48;;;;;;;16.40;15.60;;;31.70;22.30;;;;;;5033863;28;20414;-72
2021/07/02 08:58:14;;;;;;;15.97;15.20;;;31.70;1.70;;;;;;5035568;28;20465;-74
2021/07/02 09:00:44;;;;;;;16.20;15.50;;;31.60;2.10;;;;;;5036289;28;20987;-71
2021/07/02 09:03:30;;;;;;;16.70;15.93;;;31.40;2.50;;;;;;5025996;28;20430;-72
2021/07/02 09:06:12;;;;;;;16.63;15.63;;;30.80;2.90;;;;;;5032699;28;20978;-71
2021/07/02 09:08:38;;;;;;;17.03;16.20;;;29.60;4.10;;;;;;5032403;28;20449;-71
2021/07/02 09:11:25;;;;;;;17.30;16.50;;;28.70;5.00;;;;;;5014425;28;20935;-72
2021/07/02 09:13:51;;;;;;;16.47;15.67;;;28.40;5.90;;;;;;5016266;28;20624;-72
2021/07/02 09:16:21;;;;;;;17.60;16.77;;;27.80;6.20;;;;;;5013660;28;20411;-72
2021/07/02 09:18:47;;;;;;;17.90;17.00;;;26.80;6.50;;;;;;5012281;28;20493;-69
2021/07/02 09:21:26;;;;;;;16.60;15.90;;;26.30;7.50;;;;;;5015907;28;20422;-70
2021/07/02 09:23:52;;;;;;;17.77;16.73;;;25.70;8.50;;;;;;5015657;28;20183;-71
2021/07/02 09:26:37;;;;;;;16.00;15.10;;;25.10;11.00;;;;;;5013568;28;20423;-75
2021/07/02 09:29:24;;;;;;;16.47;15.57;;;24.90;10.90;;;;;;5013831;28;20477;-72
2021/07/02 09:32:00;;;;;;;16.50;15.80;;;25.00;11.00;;;;;;5020892;28;20398;-72
2021/07/02 09:34:54;;;;;;;16.70;15.90;;;25.10;10.20;;;;;;5013655;28;20418;-72
2021/07/02 09:37:26;;;;;;;17.10;16.10;;;25.10;11.00;;;;;;5014109;28;20414;-72
2021/07/02 09:39:52;;;;;;;16.77;15.97;;;25.10;10.60;;;;;;5032733;28;20450;-72
2021/07/02 09:42:28;;;;;;;17.10;16.40;;;25.00;6.90;;;;;;5035462;28;20441;-71
2021/07/02 09:45:04;;;;;;;17.00;16.20;;;24.70;8.70;;;;;;5032470;28;20186;-72
2021/07/02 09:47:30;;;;;;;16.40;15.70;;;24.90;10.40;;;;;;5032594;28;20409;-71
2021/07/02 09:50:12;;;;;;;17.53;16.43;;;25.10;8.20;;;;;;5035739;28;20481;-72
2021/07/02 09:52:49;;;;;;;17.17;16.27;;;25.00;7.90;;;;;;5032579;28;20504;-70
2021/07/02 09:55:16;;;;;;;16.53;15.87;;;24.90;8.30;;;;;;5032911;28;20459;-72
2021/07/02 09:57:42;;;;;;;16.73;16.03;;;25.00;8.50;;;;;;5032487;28;20413;-72
2021/07/02 10:00:10;;;;;;;17.90;17.10;;;25.00;8.40;;;;;;5032881;28;20968;-72
2021/07/02 10:02:36;;;;;;;17.53;16.83;;;25.10;6.80;;;;;;5034000;28;20187;-71
2021/07/02 10:05:04;;;;;;;18.90;17.80;;;24.90;7.70;;;;;;5031756;28;20818;-72
2021/07/02 10:07:29;;;;;;;16.90;16.20;;;24.50;7.20;;;;;;5034012;28;20183;-71
2021/07/02 10:09:56;;;;;;;17.30;16.50;;;24.30;7.10;;;;;;5034265;28;20840;-72
2021/07/02 10:12:22;;;;;;;17.03;16.30;;;24.20;8.40;;;;;;5034244;28;20175;-72
2021/07/02 10:14:51;;;;;;;17.33;16.63;;;24.20;7.70;;;;;;5032835;28;20420;-72
2021/07/02 10:17:18;;;;;;;18.60;17.47;;;24.20;6.80;;;;;;5032197;28;20420;-71
2021/07/02 10:19:48;;;;;;;17.23;16.43;;;24.40;7.40;;;;;;5032974;28;20444;-72
2021/07/02 10:22:18;;;;;;;17.93;17.03;;;25.00;10.00;;;;;;5035268;28;20422;-72
2021/07/02 10:24:48;;;;;;;18.20;17.40;;;25.30;6.00;;;;;;5031668;28;20454;-72
2021/07/02 10:27:15;;;;;;;17.07;16.37;;;25.10;6.40;;;;;;5034405;28;20418;-72
2021/07/02 10:29:42;;;;;;;17.80;17.00;;;25.10;7.60;;;;;;5034248;28;20458;-72
2021/07/02 10:32:10;;;;;;;17.50;16.70;;;25.40;7.30;;;;;;5031711;28;20810;-72
2021/07/02 10:34:37;;;;;;;17.50;16.77;;;25.60;8.40;;;;;;5033568;28;20414;-72
2021/07/02 10:37:04;;;;;;;17.70;16.80;;;25.60;7.10;;;;;;5032977;28;20451;-72
2021/07/02 10:39:32;;;;;;;16.67;15.97;;;25.60;8.50;;;;;;5034068;28;20783;-73
2021/07/02 10:42:09;;;;;;;17.60;16.70;;;25.60;8.80;;;;;;5031336;28;20795;-73
2021/07/02 10:44:59;;;;;;;16.73;16.03;;;25.40;9.50;;;;;;5034197;28;20465;-72
2021/07/02 10:47:26;;;;;;;16.77;16.07;;;25.30;9.30;;;;;;5032321;28;20418;-72
2021/07/02 10:49:55;;;;;;;16.93;16.20;;;25.30;9.30;;;;;;5032009;28;20469;-72
2021/07/02 10:52:25;;;;;;;16.30;15.67;;;25.10;8.20;;;;;;5031348;28;20457;-71
2021/07/02 10:54:53;;;;;;;17.87;16.57;;;25.10;8.40;;;;;;5031677;28;20410;-71
2021/07/02 10:57:21;;;;;;;18.33;17.23;;;24.90;6.10;;;;;;5033132;28;20428;-72
2021/07/02 10:59:49;;;;;;;17.30;16.60;;;24.90;7.20;;;;;;5031812;28;20440;-72
2021/07/02 11:02:20;;;;;;;17.50;16.70;;;25.00;6.40;;;;;;5029872;28;20436;-71
2021/07/02 11:04:53;;;;;;;16.90;15.83;;;24.90;6.30;;;;;;5030169;28;20422;-71
2021/07/02 11:07:18;;;;;;;18.67;17.67;;;24.70;7.80;;;;;;5033788;28;20484;-71
2021/07/02 11:09:44;;;;;;;17.30;16.50;;;24.80;5.90;;;;;;5025575;28;20465;-72
2021/07/02 11:12:11;;;;;;;17.70;16.90;;;25.10;7.60;;;;;;5018591;28;20560;-72
2021/07/02 11:14:52;;;;;;;17.77;16.80;;;25.10;6.10;;;;;;5011936;28;20203;-72
2021/07/02 11:17:23;;;;;;;17.80;17.10;;;25.30;6.50;;;;;;5012739;28;20417;-72
2021/07/02 11:20:13;;;;;;;17.97;17.07;;;25.50;7.30;;;;;;5029284;28;20450;-72
2021/07/02 11:22:41;;;;;;;18.00;17.20;;;25.70;6.80;;;;;;5031002;28;20973;-72
2021/07/02 11:25:53;;;;;;;17.37;16.67;;;25.80;5.40;;;;;;5032553;28;20813;-71
2021/07/02 11:28:17;;;;;;;17.63;16.83;;;25.80;4.60;;;;;;5027444;28;20444;-71
2021/07/02 11:30:44;;;;;;;18.23;17.50;;;25.60;5.10;;;;;;5030970;28;20750;-72
2021/07/02 11:33:11;;;;;;;18.37;17.33;;;25.60;6.00;;;;;;5035620;28;20410;-71
2021/07/02 11:35:43;;;;;;;18.50;17.70;;;25.30;4.90;;;;;;5032812;28;20414;-71
2021/07/02 11:38:15;;;;;;;19.57;18.30;;;25.00;5.00;;;;;;5029922;28;20416;-71
2021/07/02 11:40:45;;;;;;;17.30;16.50;;;25.00;6.20;;;;;;5029782;28;20758;-71
2021/07/02 11:43:12;;;;;;;18.33;17.53;;;25.00;7.30;;;;;;5031839;28;20468;-71
2021/07/02 11:45:42;;;;;;;18.67;17.80;;;25.10;6.40;;;;;;5033406;28;20482;-71
2021/07/02 11:48:26;;;;;;;18.47;17.57;;;25.20;7.10;;;;;;5034997;28;20483;-72
2021/07/02 11:50:57;;;;;;;19.10;18.03;;;25.20;6.50;;;;;;5037487;28;20406;-71
2021/07/02 11:53:36;;;;;;;19.00;18.10;;;25.20;4.30;;;;;;5036674;28;20406;-71
2021/07/02 11:56:09;;;;;;;18.20;17.50;;;25.00;4.50;;;;;;5035045;28;20402;-71
2021/07/02 11:58:36;;;;;;;18.47;17.47;;;25.10;7.40;;;;;;5033137;28;20442;-73
2021/07/02 12:01:07;;;;;;;19.03;18.13;;;25.40;5.60;;;;;;5029059;28;20425;-73
2021/07/02 12:03:34;;;;;;;18.30;17.37;;;25.60;5.00;;;;;;5012919;28;20411;-73
2021/07/02 12:06:01;;;;;;;19.80;18.80;;;25.80;4.60;;;;;;5023904;28;20843;-72
2021/07/02 12:08:29;;;;;;;19.60;18.77;;;26.10;4.40;;;;;;5030090;28;20457;-72
2021/07/02 12:11:05;;;;;;;19.10;18.23;;;26.00;4.10;;;;;;5029204;28;20791;-73
2021/07/02 12:13:33;;;;;;;19.13;18.13;;;25.70;4.20;;;;;;5031153;28;20416;-72
2021/07/02 12:16:10;;;;;;;18.80;18.00;;;25.40;4.70;;;;;;5031800;28;20436;-73
2021/07/02 12:18:38;;;;;;;18.57;17.77;;;25.10;4.80;;;;;;5037586;28;20571;-73
2021/07/02 12:21:12;;;;;;;18.40;17.40;;;24.90;5.70;;;;;;5033618;28;20413;-72
2021/07/02 12:23:43;;;;;;;18.97;18.17;;;24.70;6.00;;;;;;5034786;28;20426;-70
2021/07/02 12:26:20;;;;;;;19.80;18.80;;;24.80;4.30;;;;;;5035919;28;20452;-70
2021/07/02 12:28:58;;;;;;;19.10;18.20;;;24.70;5.90;;;;;;5033627;28;20480;-71
2021/07/02 12:31:41;;;;;;;19.60;18.70;;;24.50;5.70;;;;;;5034912;28;20413;-70
2021/07/02 12:34:11;;;;;;;19.17;18.33;;;24.50;7.90;;;;;;5034522;28;20913;-71
2021/07/02 12:36:58;;;;;;;18.97;17.80;;;24.90;6.50;;;;;;5035468;28;20415;-71
2021/07/02 12:39:31;;;;;;;19.30;18.30;;;25.10;6.20;;;;;;5033567;28;20437;-70
2021/07/02 12:42:03;;;;;;;20.43;19.23;;;25.30;4.80;;;;;;5033974;28;20422;-70
2021/07/02 12:44:31;;;;;;;20.00;18.90;;;25.20;4.70;;;;;;5034110;28;20778;-70
2021/07/02 12:46:57;;;;;;;19.27;18.47;;;25.30;3.50;;;;;;5033564;28;20421;-71
2021/07/02 12:49:27;;;;;;;18.33;17.63;;;25.20;3.60;;;;;;5033243;28;20473;-70
2021/07/02 12:54:47;;;;;;;19.53;18.53;;;24.90;5.90;;;;;;5032406;28;20500;-70